sensor_id;sensor_type;location;lat;lon;timestamp;P1;durP1;ratioP1;P2;durP2;ratioP2
23449;SDS011;11897;45.438;12.128;2022-12-07T00:00:51;7.17;;;3.90;;
23449;SDS011;11897;45.438;12.128;2022-12-07T00:03:18;10.60;;;4.57;;
23449;SDS011;11897;45.438;12.128;2022-12-07T00:05:46;9.00;;;4.97;;
23449;SDS011;11897;45.438;12.128;2022-12-07T00:08:13;9.83;;;3.53;;
23449;SDS011;11897;45.438;12.128;2022-12-07T00:10:41;7.23;;;4.60;;
23449;SDS011;11897;45.438;12.128;2022-12-07T00:13:08;8.60;;;4.47;;
23449;SDS011;11897;45.438;12.128;2022-12-07T00:15:35;8.13;;;3.73;;
23449;SDS011;11897;45.438;12.128;2022-12-07T00:18:05;5.47;;;3.43;;
23449;SDS011;11897;45.438;12.128;2022-12-07T00:20:32;7.40;;;3.90;;
23449;SDS011;11897;45.438;12.128;2022-12-07T00:22:59;9.17;;;4.60;;
23449;SDS011;11897;45.438;12.128;2022-12-07T00:25:27;7.77;;;3.97;;
23449;SDS011;11897;45.438;12.128;2022-12-07T00:27:53;11.10;;;4.20;;
23449;SDS011;11897;45.438;12.128;2022-12-07T00:30:22;6.20;;;3.60;;
23449;SDS011;11897;45.438;12.128;2022-12-07T00:32:49;8.37;;;3.93;;
23449;SDS011;11897;45.438;12.128;2022-12-07T00:35:17;6.47;;;3.70;;
23449;SDS011;11897;45.438;12.128;2022-12-07T00:37:43;6.70;;;3.47;;
23449;SDS011;11897;45.438;12.128;2022-12-07T00:40:10;7.90;;;4.07;;
23449;SDS011;11897;45.438;12.128;2022-12-07T00:42:37;10.53;;;5.13;;
23449;SDS011;11897;45.438;12.128;2022-12-07T00:45:05;15.30;;;4.23;;
23449;SDS011;11897;45.438;12.128;2022-12-07T00:47:32;18.10;;;4.13;;
23449;SDS011;11897;45.438;12.128;2022-12-07T00:49:58;8.23;;;3.90;;
23449;SDS011;11897;45.438;12.128;2022-12-07T00:52:27;6.57;;;3.77;;
23449;SDS011;11897;45.438;12.128;2022-12-07T00:54:53;8.57;;;4.47;;
23449;SDS011;11897;45.438;12.128;2022-12-07T00:57:20;9.03;;;3.90;;
23449;SDS011;11897;45.438;12.128;2022-12-07T00:59:47;6.50;;;3.60;;
23449;SDS011;11897;45.438;12.128;2022-12-07T01:02:14;8.43;;;4.27;;
23449;SDS011;11897;45.438;12.128;2022-12-07T01:04:41;8.37;;;3.53;;
23449;SDS011;11897;45.438;12.128;2022-12-07T01:07:07;8.40;;;3.70;;
23449;SDS011;11897;45.438;12.128;2022-12-07T01:09:35;8.90;;;4.10;;
23449;SDS011;11897;45.438;12.128;2022-12-07T01:12:02;5.53;;;2.97;;
23449;SDS011;11897;45.438;12.128;2022-12-07T01:14:29;7.40;;;4.00;;
23449;SDS011;11897;45.438;12.128;2022-12-07T01:16:57;8.33;;;4.03;;
23449;SDS011;11897;45.438;12.128;2022-12-07T01:19:24;7.10;;;4.03;;
23449;SDS011;11897;45.438;12.128;2022-12-07T01:21:52;9.70;;;4.70;;
23449;SDS011;11897;45.438;12.128;2022-12-07T01:24:19;7.13;;;4.20;;
23449;SDS011;11897;45.438;12.128;2022-12-07T01:26:49;5.10;;;2.97;;
23449;SDS011;11897;45.438;12.128;2022-12-07T01:29:16;9.20;;;3.63;;
23449;SDS011;11897;45.438;12.128;2022-12-07T01:31:43;6.87;;;3.60;;
23449;SDS011;11897;45.438;12.128;2022-12-07T01:34:09;7.43;;;3.57;;
23449;SDS011;11897;45.438;12.128;2022-12-07T01:36:36;9.60;;;4.20;;
23449;SDS011;11897;45.438;12.128;2022-12-07T01:39:03;6.87;;;5.03;;
23449;SDS011;11897;45.438;12.128;2022-12-07T01:41:31;8.57;;;4.40;;
23449;SDS011;11897;45.438;12.128;2022-12-07T01:44:14;8.97;;;4.63;;
23449;SDS011;11897;45.438;12.128;2022-12-07T01:46:45;6.67;;;3.20;;
23449;SDS011;11897;45.438;12.128;2022-12-07T01:49:16;8.17;;;4.73;;
23449;SDS011;11897;45.438;12.128;2022-12-07T01:51:44;7.27;;;4.03;;
23449;SDS011;11897;45.438;12.128;2022-12-07T01:54:12;7.70;;;4.27;;
23449;SDS011;11897;45.438;12.128;2022-12-07T01:56:39;5.63;;;3.73;;
23449;SDS011;11897;45.438;12.128;2022-12-07T01:59:07;10.73;;;5.33;;
23449;SDS011;11897;45.438;12.128;2022-12-07T02:01:37;7.30;;;3.73;;
23449;SDS011;11897;45.438;12.128;2022-12-07T02:04:04;9.33;;;3.77;;
23449;SDS011;11897;45.438;12.128;2022-12-07T02:06:33;6.97;;;4.53;;
23449;SDS011;11897;45.438;12.128;2022-12-07T02:09:03;6.17;;;4.03;;
23449;SDS011;11897;45.438;12.128;2022-12-07T02:11:30;9.97;;;3.97;;
23449;SDS011;11897;45.438;12.128;2022-12-07T02:13:58;8.00;;;4.07;;
23449;SDS011;11897;45.438;12.128;2022-12-07T02:16:27;5.10;;;3.80;;
23449;SDS011;11897;45.438;12.128;2022-12-07T02:18:59;8.63;;;3.90;;
23449;SDS011;11897;45.438;12.128;2022-12-07T02:21:32;8.97;;;3.67;;
23449;SDS011;11897;45.438;12.128;2022-12-07T02:24:14;6.03;;;3.53;;
23449;SDS011;11897;45.438;12.128;2022-12-07T02:26:52;6.73;;;4.30;;
23449;SDS011;11897;45.438;12.128;2022-12-07T02:29:25;8.13;;;3.00;;
23449;SDS011;11897;45.438;12.128;2022-12-07T02:31:55;7.13;;;3.20;;
23449;SDS011;11897;45.438;12.128;2022-12-07T02:34:32;12.23;;;4.10;;
23449;SDS011;11897;45.438;12.128;2022-12-07T02:37:02;10.63;;;3.63;;
23449;SDS011;11897;45.438;12.128;2022-12-07T02:39:31;9.80;;;4.10;;
23449;SDS011;11897;45.438;12.128;2022-12-07T02:42:01;7.57;;;3.20;;
23449;SDS011;11897;45.438;12.128;2022-12-07T02:44:30;6.87;;;3.63;;
23449;SDS011;11897;45.438;12.128;2022-12-07T02:46:59;6.00;;;2.63;;
23449;SDS011;11897;45.438;12.128;2022-12-07T02:49:28;6.67;;;3.17;;
23449;SDS011;11897;45.438;12.128;2022-12-07T02:51:56;6.40;;;3.17;;
23449;SDS011;11897;45.438;12.128;2022-12-07T02:54:24;4.57;;;2.87;;
23449;SDS011;11897;45.438;12.128;2022-12-07T02:56:52;5.63;;;3.50;;
23449;SDS011;11897;45.438;12.128;2022-12-07T02:59:25;4.53;;;2.90;;
23449;SDS011;11897;45.438;12.128;2022-12-07T03:01:59;6.17;;;3.40;;
23449;SDS011;11897;45.438;12.128;2022-12-07T03:04:31;6.77;;;3.87;;
23449;SDS011;11897;45.438;12.128;2022-12-07T03:07:02;5.80;;;3.00;;
23449;SDS011;11897;45.438;12.128;2022-12-07T03:09:33;5.70;;;2.63;;
23449;SDS011;11897;45.438;12.128;2022-12-07T03:12:07;3.77;;;2.43;;
23449;SDS011;11897;45.438;12.128;2022-12-07T03:14:40;5.87;;;3.17;;
23449;SDS011;11897;45.438;12.128;2022-12-07T03:17:12;7.37;;;3.50;;
23449;SDS011;11897;45.438;12.128;2022-12-07T03:19:42;9.23;;;3.20;;
23449;SDS011;11897;45.438;12.128;2022-12-07T03:22:12;5.53;;;3.77;;
23449;SDS011;11897;45.438;12.128;2022-12-07T03:24:40;5.93;;;3.10;;
23449;SDS011;11897;45.438;12.128;2022-12-07T03:27:11;6.03;;;3.43;;
23449;SDS011;11897;45.438;12.128;2022-12-07T03:29:40;6.60;;;2.97;;
23449;SDS011;11897;45.438;12.128;2022-12-07T03:32:12;5.63;;;2.83;;
23449;SDS011;11897;45.438;12.128;2022-12-07T03:34:42;4.50;;;2.60;;
23449;SDS011;11897;45.438;12.128;2022-12-07T03:37:12;5.37;;;2.90;;
23449;SDS011;11897;45.438;12.128;2022-12-07T03:39:41;7.73;;;2.17;;
23449;SDS011;11897;45.438;12.128;2022-12-07T03:42:11;5.23;;;2.70;;
23449;SDS011;11897;45.438;12.128;2022-12-07T03:44:41;4.90;;;2.77;;
23449;SDS011;11897;45.438;12.128;2022-12-07T03:47:10;5.83;;;3.43;;
23449;SDS011;11897;45.438;12.128;2022-12-07T03:49:43;4.87;;;3.13;;
23449;SDS011;11897;45.438;12.128;2022-12-07T03:52:13;6.67;;;2.80;;
23449;SDS011;11897;45.438;12.128;2022-12-07T03:54:44;3.87;;;2.63;;
23449;SDS011;11897;45.438;12.128;2022-12-07T03:57:13;4.77;;;2.80;;
23449;SDS011;11897;45.438;12.128;2022-12-07T03:59:40;6.33;;;2.63;;
23449;SDS011;11897;45.438;12.128;2022-12-07T04:02:07;6.13;;;3.27;;
23449;SDS011;11897;45.438;12.128;2022-12-07T04:04:34;5.30;;;3.47;;
23449;SDS011;11897;45.438;12.128;2022-12-07T04:07:02;5.47;;;2.53;;
23449;SDS011;11897;45.438;12.128;2022-12-07T04:09:29;7.37;;;3.97;;
23449;SDS011;11897;45.438;12.128;2022-12-07T04:11:56;6.83;;;3.30;;
23449;SDS011;11897;45.438;12.128;2022-12-07T04:14:22;5.73;;;3.13;;
23449;SDS011;11897;45.438;12.128;2022-12-07T04:16:50;6.40;;;3.80;;
23449;SDS011;11897;45.438;12.128;2022-12-07T04:19:17;6.40;;;2.60;;
23449;SDS011;11897;45.438;12.128;2022-12-07T04:21:45;6.40;;;3.30;;
23449;SDS011;11897;45.438;12.128;2022-12-07T04:24:14;5.27;;;3.03;;
23449;SDS011;11897;45.438;12.128;2022-12-07T04:26:41;4.53;;;3.17;;
23449;SDS011;11897;45.438;12.128;2022-12-07T04:29:07;5.37;;;3.10;;
23449;SDS011;11897;45.438;12.128;2022-12-07T04:31:34;5.80;;;3.67;;
23449;SDS011;11897;45.438;12.128;2022-12-07T04:34:01;5.17;;;2.93;;
23449;SDS011;11897;45.438;12.128;2022-12-07T04:36:28;3.90;;;2.77;;
23449;SDS011;11897;45.438;12.128;2022-12-07T04:38:54;7.03;;;2.93;;
23449;SDS011;11897;45.438;12.128;2022-12-07T04:41:23;5.37;;;2.57;;
23449;SDS011;11897;45.438;12.128;2022-12-07T04:43:53;3.83;;;2.63;;
23449;SDS011;11897;45.438;12.128;2022-12-07T04:46:22;7.70;;;3.83;;
23449;SDS011;11897;45.438;12.128;2022-12-07T04:48:49;4.13;;;2.57;;
23449;SDS011;11897;45.438;12.128;2022-12-07T04:51:19;6.80;;;4.37;;
23449;SDS011;11897;45.438;12.128;2022-12-07T04:53:46;4.47;;;1.73;;
23449;SDS011;11897;45.438;12.128;2022-12-07T04:56:13;7.47;;;3.40;;
23449;SDS011;11897;45.438;12.128;2022-12-07T04:58:41;6.37;;;3.30;;
23449;SDS011;11897;45.438;12.128;2022-12-07T05:01:08;5.60;;;2.63;;
23449;SDS011;11897;45.438;12.128;2022-12-07T05:03:35;5.53;;;2.60;;
23449;SDS011;11897;45.438;12.128;2022-12-07T05:06:02;5.33;;;2.70;;
23449;SDS011;11897;45.438;12.128;2022-12-07T05:08:32;5.23;;;2.53;;
23449;SDS011;11897;45.438;12.128;2022-12-07T05:11:00;6.00;;;2.17;;
23449;SDS011;11897;45.438;12.128;2022-12-07T05:13:27;2.87;;;2.13;;
23449;SDS011;11897;45.438;12.128;2022-12-07T05:15:57;4.00;;;2.50;;
23449;SDS011;11897;45.438;12.128;2022-12-07T05:18:24;4.60;;;2.43;;
23449;SDS011;11897;45.438;12.128;2022-12-07T05:20:51;6.63;;;3.00;;
23449;SDS011;11897;45.438;12.128;2022-12-07T05:23:18;6.50;;;3.27;;
23449;SDS011;11897;45.438;12.128;2022-12-07T05:25:46;4.23;;;2.07;;
23449;SDS011;11897;45.438;12.128;2022-12-07T05:28:13;7.37;;;2.93;;
23449;SDS011;11897;45.438;12.128;2022-12-07T05:30:40;6.17;;;2.77;;
23449;SDS011;11897;45.438;12.128;2022-12-07T05:33:08;5.23;;;2.27;;
23449;SDS011;11897;45.438;12.128;2022-12-07T05:35:35;5.47;;;2.20;;
23449;SDS011;11897;45.438;12.128;2022-12-07T05:38:03;3.00;;;2.00;;
23449;SDS011;11897;45.438;12.128;2022-12-07T05:40:29;5.03;;;3.20;;
23449;SDS011;11897;45.438;12.128;2022-12-07T05:42:56;3.77;;;2.20;;
23449;SDS011;11897;45.438;12.128;2022-12-07T05:45:22;6.37;;;3.27;;
23449;SDS011;11897;45.438;12.128;2022-12-07T05:47:49;3.00;;;2.07;;
23449;SDS011;11897;45.438;12.128;2022-12-07T05:50:17;5.57;;;2.60;;
23449;SDS011;11897;45.438;12.128;2022-12-07T05:52:58;4.10;;;2.90;;
23449;SDS011;11897;45.438;12.128;2022-12-07T05:55:25;5.17;;;2.67;;
23449;SDS011;11897;45.438;12.128;2022-12-07T05:57:52;4.80;;;2.53;;
23449;SDS011;11897;45.438;12.128;2022-12-07T06:00:32;6.50;;;2.90;;
23449;SDS011;11897;45.438;12.128;2022-12-07T06:02:59;4.97;;;2.70;;
23449;SDS011;11897;45.438;12.128;2022-12-07T06:05:27;6.37;;;2.90;;
23449;SDS011;11897;45.438;12.128;2022-12-07T06:07:54;4.97;;;2.73;;
23449;SDS011;11897;45.438;12.128;2022-12-07T06:10:21;3.57;;;2.20;;
23449;SDS011;11897;45.438;12.128;2022-12-07T06:12:47;7.43;;;3.87;;
23449;SDS011;11897;45.438;12.128;2022-12-07T06:15:13;4.87;;;2.13;;
23449;SDS011;11897;45.438;12.128;2022-12-07T06:17:40;4.47;;;2.93;;
23449;SDS011;11897;45.438;12.128;2022-12-07T06:20:07;6.23;;;2.80;;
23449;SDS011;11897;45.438;12.128;2022-12-07T06:22:35;4.20;;;2.40;;
23449;SDS011;11897;45.438;12.128;2022-12-07T06:25:02;5.77;;;3.20;;
23449;SDS011;11897;45.438;12.128;2022-12-07T06:27:29;12.57;;;2.73;;
23449;SDS011;11897;45.438;12.128;2022-12-07T06:29:58;7.20;;;2.93;;
23449;SDS011;11897;45.438;12.128;2022-12-07T06:32:32;5.73;;;3.10;;
23449;SDS011;11897;45.438;12.128;2022-12-07T06:34:59;4.90;;;2.77;;
23449;SDS011;11897;45.438;12.128;2022-12-07T06:37:26;5.97;;;2.20;;
23449;SDS011;11897;45.438;12.128;2022-12-07T06:39:54;10.23;;;3.13;;
23449;SDS011;11897;45.438;12.128;2022-12-07T06:42:21;4.20;;;2.30;;
23449;SDS011;11897;45.438;12.128;2022-12-07T06:44:48;4.80;;;2.17;;
23449;SDS011;11897;45.438;12.128;2022-12-07T06:47:15;5.33;;;2.83;;
23449;SDS011;11897;45.438;12.128;2022-12-07T06:49:42;4.70;;;2.40;;
23449;SDS011;11897;45.438;12.128;2022-12-07T06:52:08;10.70;;;2.30;;
23449;SDS011;11897;45.438;12.128;2022-12-07T06:54:35;4.43;;;2.33;;
23449;SDS011;11897;45.438;12.128;2022-12-07T06:57:03;3.80;;;2.47;;
23449;SDS011;11897;45.438;12.128;2022-12-07T06:59:30;5.60;;;2.50;;
23449;SDS011;11897;45.438;12.128;2022-12-07T07:01:57;4.50;;;2.63;;
23449;SDS011;11897;45.438;12.128;2022-12-07T07:04:25;3.93;;;2.57;;
23449;SDS011;11897;45.438;12.128;2022-12-07T07:06:52;5.07;;;3.20;;
23449;SDS011;11897;45.438;12.128;2022-12-07T07:09:19;3.43;;;2.30;;
23449;SDS011;11897;45.438;12.128;2022-12-07T07:11:47;5.20;;;2.73;;
23449;SDS011;11897;45.438;12.128;2022-12-07T07:14:16;3.33;;;2.07;;
23449;SDS011;11897;45.438;12.128;2022-12-07T07:16:44;4.60;;;2.40;;
23449;SDS011;11897;45.438;12.128;2022-12-07T07:19:11;5.57;;;3.03;;
23449;SDS011;11897;45.438;12.128;2022-12-07T07:21:38;9.30;;;2.80;;
23449;SDS011;11897;45.438;12.128;2022-12-07T07:24:05;5.50;;;3.23;;
23449;SDS011;11897;45.438;12.128;2022-12-07T07:26:31;5.53;;;3.80;;
23449;SDS011;11897;45.438;12.128;2022-12-07T07:28:58;7.63;;;3.27;;
23449;SDS011;11897;45.438;12.128;2022-12-07T07:31:26;4.47;;;3.27;;
23449;SDS011;11897;45.438;12.128;2022-12-07T07:33:54;5.53;;;3.70;;
23449;SDS011;11897;45.438;12.128;2022-12-07T07:36:21;12.20;;;3.67;;
23449;SDS011;11897;45.438;12.128;2022-12-07T07:38:47;8.60;;;4.10;;
23449;SDS011;11897;45.438;12.128;2022-12-07T07:41:14;6.30;;;3.63;;
23449;SDS011;11897;45.438;12.128;2022-12-07T07:43:41;10.43;;;3.40;;
23449;SDS011;11897;45.438;12.128;2022-12-07T07:46:08;4.70;;;3.27;;
23449;SDS011;11897;45.438;12.128;2022-12-07T07:48:37;6.97;;;4.03;;
23449;SDS011;11897;45.438;12.128;2022-12-07T07:51:04;4.87;;;3.23;;
23449;SDS011;11897;45.438;12.128;2022-12-07T07:53:32;4.60;;;2.97;;
23449;SDS011;11897;45.438;12.128;2022-12-07T07:55:59;5.67;;;3.20;;
23449;SDS011;11897;45.438;12.128;2022-12-07T07:58:26;5.23;;;3.20;;
23449;SDS011;11897;45.438;12.128;2022-12-07T08:00:52;9.47;;;3.97;;
23449;SDS011;11897;45.438;12.128;2022-12-07T08:03:23;6.97;;;3.43;;
23449;SDS011;11897;45.438;12.128;2022-12-07T08:05:51;4.63;;;2.50;;
23449;SDS011;11897;45.438;12.128;2022-12-07T08:08:18;8.30;;;3.30;;
23449;SDS011;11897;45.438;12.128;2022-12-07T08:10:46;6.13;;;3.00;;
23449;SDS011;11897;45.438;12.128;2022-12-07T08:13:15;5.30;;;3.40;;
23449;SDS011;11897;45.438;12.128;2022-12-07T08:15:43;6.73;;;3.10;;
23449;SDS011;11897;45.438;12.128;2022-12-07T08:18:11;3.97;;;3.00;;
23449;SDS011;11897;45.438;12.128;2022-12-07T08:20:38;5.87;;;3.57;;
23449;SDS011;11897;45.438;12.128;2022-12-07T08:23:06;3.93;;;2.33;;
23449;SDS011;11897;45.438;12.128;2022-12-07T08:25:33;4.60;;;2.70;;
23449;SDS011;11897;45.438;12.128;2022-12-07T08:27:59;6.27;;;3.27;;
23449;SDS011;11897;45.438;12.128;2022-12-07T08:30:27;6.17;;;3.17;;
23449;SDS011;11897;45.438;12.128;2022-12-07T08:32:53;7.10;;;3.07;;
23449;SDS011;11897;45.438;12.128;2022-12-07T08:35:20;13.23;;;3.90;;
23449;SDS011;11897;45.438;12.128;2022-12-07T08:37:47;7.03;;;3.23;;
23449;SDS011;11897;45.438;12.128;2022-12-07T08:40:15;6.83;;;4.50;;
23449;SDS011;11897;45.438;12.128;2022-12-07T08:42:44;6.40;;;3.30;;
23449;SDS011;11897;45.438;12.128;2022-12-07T08:45:13;4.53;;;2.33;;
23449;SDS011;11897;45.438;12.128;2022-12-07T08:47:41;4.50;;;2.63;;
23449;SDS011;11897;45.438;12.128;2022-12-07T08:50:08;5.77;;;3.33;;
23449;SDS011;11897;45.438;12.128;2022-12-07T08:52:36;4.90;;;3.00;;
23449;SDS011;11897;45.438;12.128;2022-12-07T08:55:03;5.00;;;2.77;;
23449;SDS011;11897;45.438;12.128;2022-12-07T08:57:33;7.43;;;3.17;;
23449;SDS011;11897;45.438;12.128;2022-12-07T09:00:03;4.20;;;2.70;;
23449;SDS011;11897;45.438;12.128;2022-12-07T09:02:31;5.80;;;3.30;;
23449;SDS011;11897;45.438;12.128;2022-12-07T09:04:57;4.43;;;2.83;;
23449;SDS011;11897;45.438;12.128;2022-12-07T09:07:24;5.03;;;3.00;;
23449;SDS011;11897;45.438;12.128;2022-12-07T09:09:51;5.90;;;2.83;;
23449;SDS011;11897;45.438;12.128;2022-12-07T09:12:18;4.23;;;2.90;;
23449;SDS011;11897;45.438;12.128;2022-12-07T09:14:47;4.43;;;2.77;;
23449;SDS011;11897;45.438;12.128;2022-12-07T09:17:14;2.73;;;2.10;;
23449;SDS011;11897;45.438;12.128;2022-12-07T09:19:41;4.47;;;2.70;;
23449;SDS011;11897;45.438;12.128;2022-12-07T09:22:09;8.70;;;3.70;;
23449;SDS011;11897;45.438;12.128;2022-12-07T09:24:37;5.00;;;3.27;;
23449;SDS011;11897;45.438;12.128;2022-12-07T09:27:04;5.27;;;2.40;;
23449;SDS011;11897;45.438;12.128;2022-12-07T09:29:31;4.57;;;2.20;;
23449;SDS011;11897;45.438;12.128;2022-12-07T09:32:01;4.23;;;2.50;;
23449;SDS011;11897;45.438;12.128;2022-12-07T09:34:30;2.53;;;1.93;;
23449;SDS011;11897;45.438;12.128;2022-12-07T09:36:57;3.93;;;2.30;;
23449;SDS011;11897;45.438;12.128;2022-12-07T09:39:24;6.10;;;2.73;;
23449;SDS011;11897;45.438;12.128;2022-12-07T09:41:50;3.27;;;2.20;;
23449;SDS011;11897;45.438;12.128;2022-12-07T09:44:19;11.90;;;2.83;;
23449;SDS011;11897;45.438;12.128;2022-12-07T09:46:47;3.00;;;1.93;;
23449;SDS011;11897;45.438;12.128;2022-12-07T09:49:20;5.03;;;3.07;;
23449;SDS011;11897;45.438;12.128;2022-12-07T09:51:59;2.30;;;1.57;;
23449;SDS011;11897;45.438;12.128;2022-12-07T09:54:28;2.90;;;1.90;;
23449;SDS011;11897;45.438;12.128;2022-12-07T09:56:58;4.80;;;2.30;;
23449;SDS011;11897;45.438;12.128;2022-12-07T09:59:25;3.33;;;2.10;;
23449;SDS011;11897;45.438;12.128;2022-12-07T10:01:52;3.47;;;2.30;;
23449;SDS011;11897;45.438;12.128;2022-12-07T10:04:24;3.70;;;2.50;;
23449;SDS011;11897;45.438;12.128;2022-12-07T10:06:54;4.23;;;2.30;;
23449;SDS011;11897;45.438;12.128;2022-12-07T10:09:22;2.70;;;1.97;;
23449;SDS011;11897;45.438;12.128;2022-12-07T10:12:03;3.20;;;2.20;;
23449;SDS011;11897;45.438;12.128;2022-12-07T10:14:31;2.90;;;2.10;;
23449;SDS011;11897;45.438;12.128;2022-12-07T10:16:58;5.13;;;2.47;;
23449;SDS011;11897;45.438;12.128;2022-12-07T10:19:27;5.70;;;2.83;;
23449;SDS011;11897;45.438;12.128;2022-12-07T10:22:05;3.53;;;2.63;;
23449;SDS011;11897;45.438;12.128;2022-12-07T10:24:35;3.37;;;2.30;;
23449;SDS011;11897;45.438;12.128;2022-12-07T10:27:04;6.03;;;2.37;;
23449;SDS011;11897;45.438;12.128;2022-12-07T10:29:31;5.63;;;2.87;;
23449;SDS011;11897;45.438;12.128;2022-12-07T10:32:00;4.63;;;2.87;;
23449;SDS011;11897;45.438;12.128;2022-12-07T10:34:29;6.73;;;2.83;;
23449;SDS011;11897;45.438;12.128;2022-12-07T10:37:15;3.80;;;2.23;;
23449;SDS011;11897;45.438;12.128;2022-12-07T10:39:43;4.57;;;2.70;;
23449;SDS011;11897;45.438;12.128;2022-12-07T10:42:17;3.80;;;2.97;;
23449;SDS011;11897;45.438;12.128;2022-12-07T10:44:45;3.97;;;1.97;;
23449;SDS011;11897;45.438;12.128;2022-12-07T10:47:24;4.63;;;2.13;;
23449;SDS011;11897;45.438;12.128;2022-12-07T10:52:47;5.40;;;2.20;;
23449;SDS011;11897;45.438;12.128;2022-12-07T10:55:20;8.43;;;2.10;;
23449;SDS011;11897;45.438;12.128;2022-12-07T10:58:01;2.90;;;2.40;;
23449;SDS011;11897;45.438;12.128;2022-12-07T11:00:32;3.17;;;1.70;;
23449;SDS011;11897;45.438;12.128;2022-12-07T11:03:06;2.57;;;1.90;;
23449;SDS011;11897;45.438;12.128;2022-12-07T11:05:38;2.17;;;1.93;;
23449;SDS011;11897;45.438;12.128;2022-12-07T11:08:12;3.83;;;1.63;;
23449;SDS011;11897;45.438;12.128;2022-12-07T11:10:42;2.37;;;1.40;;
23449;SDS011;11897;45.438;12.128;2022-12-07T11:13:14;1.30;;;1.20;;
23449;SDS011;11897;45.438;12.128;2022-12-07T11:15:46;2.17;;;1.33;;
23449;SDS011;11897;45.438;12.128;2022-12-07T11:18:19;1.80;;;1.30;;
23449;SDS011;11897;45.438;12.128;2022-12-07T11:20:50;1.80;;;1.17;;
23449;SDS011;11897;45.438;12.128;2022-12-07T11:23:30;5.20;;;1.67;;
23449;SDS011;11897;45.438;12.128;2022-12-07T11:26:00;3.27;;;1.13;;
23449;SDS011;11897;45.438;12.128;2022-12-07T11:28:33;4.43;;;1.57;;
23449;SDS011;11897;45.438;12.128;2022-12-07T11:31:05;2.63;;;1.53;;
23449;SDS011;11897;45.438;12.128;2022-12-07T11:33:37;2.57;;;1.70;;
23449;SDS011;11897;45.438;12.128;2022-12-07T11:36:11;2.73;;;1.50;;
23449;SDS011;11897;45.438;12.128;2022-12-07T11:38:44;2.30;;;1.53;;
23449;SDS011;11897;45.438;12.128;2022-12-07T11:41:12;2.47;;;1.33;;
23449;SDS011;11897;45.438;12.128;2022-12-07T11:43:42;1.87;;;1.23;;
23449;SDS011;11897;45.438;12.128;2022-12-07T11:46:14;2.30;;;1.50;;
23449;SDS011;11897;45.438;12.128;2022-12-07T11:48:41;2.20;;;1.40;;
23449;SDS011;11897;45.438;12.128;2022-12-07T11:51:10;3.40;;;1.67;;
23449;SDS011;11897;45.438;12.128;2022-12-07T11:53:38;1.70;;;1.40;;
23449;SDS011;11897;45.438;12.128;2022-12-07T11:56:09;2.83;;;1.77;;
23449;SDS011;11897;45.438;12.128;2022-12-07T11:58:42;1.90;;;1.00;;
23449;SDS011;11897;45.438;12.128;2022-12-07T12:01:13;3.10;;;1.60;;
23449;SDS011;11897;45.438;12.128;2022-12-07T12:03:42;1.90;;;1.20;;
23449;SDS011;11897;45.438;12.128;2022-12-07T12:06:11;1.63;;;1.30;;
23449;SDS011;11897;45.438;12.128;2022-12-07T12:08:38;1.37;;;1.23;;
23449;SDS011;11897;45.438;12.128;2022-12-07T12:11:12;2.23;;;1.23;;
23449;SDS011;11897;45.438;12.128;2022-12-07T12:13:59;3.53;;;1.43;;
23449;SDS011;11897;45.438;12.128;2022-12-07T12:16:35;1.00;;;0.80;;
23449;SDS011;11897;45.438;12.128;2022-12-07T12:19:10;1.90;;;1.23;;
23449;SDS011;11897;45.438;12.128;2022-12-07T12:21:41;1.17;;;1.03;;
23449;SDS011;11897;45.438;12.128;2022-12-07T12:24:09;2.53;;;1.50;;
23449;SDS011;11897;45.438;12.128;2022-12-07T12:26:40;1.60;;;1.07;;
23449;SDS011;11897;45.438;12.128;2022-12-07T12:29:19;2.73;;;1.57;;
23449;SDS011;11897;45.438;12.128;2022-12-07T12:31:47;2.10;;;1.07;;
23449;SDS011;11897;45.438;12.128;2022-12-07T12:34:31;4.37;;;1.50;;
23449;SDS011;11897;45.438;12.128;2022-12-07T12:36:58;1.83;;;1.40;;
23449;SDS011;11897;45.438;12.128;2022-12-07T12:39:25;1.20;;;1.10;;
23449;SDS011;11897;45.438;12.128;2022-12-07T12:42:00;1.77;;;1.67;;
23449;SDS011;11897;45.438;12.128;2022-12-07T12:47:40;1.93;;;1.03;;
23449;SDS011;11897;45.438;12.128;2022-12-07T12:50:17;1.63;;;1.10;;
23449;SDS011;11897;45.438;12.128;2022-12-07T13:03:53;5.00;;;1.70;;
23449;SDS011;11897;45.438;12.128;2022-12-07T13:06:31;1.63;;;1.10;;
23449;SDS011;11897;45.438;12.128;2022-12-07T13:09:01;1.47;;;1.30;;
23449;SDS011;11897;45.438;12.128;2022-12-07T13:11:28;3.50;;;1.47;;
23449;SDS011;11897;45.438;12.128;2022-12-07T13:16:41;3.33;;;1.33;;
23449;SDS011;11897;45.438;12.128;2022-12-07T13:24:51;1.57;;;1.27;;
23449;SDS011;11897;45.438;12.128;2022-12-07T13:27:20;3.77;;;1.43;;
23449;SDS011;11897;45.438;12.128;2022-12-07T13:29:47;2.30;;;1.40;;
23449;SDS011;11897;45.438;12.128;2022-12-07T13:32:17;2.13;;;1.30;;
23449;SDS011;11897;45.438;12.128;2022-12-07T13:34:49;2.77;;;1.63;;
23449;SDS011;11897;45.438;12.128;2022-12-07T13:37:27;2.37;;;1.63;;
23449;SDS011;11897;45.438;12.128;2022-12-07T13:39:56;1.67;;;1.20;;
23449;SDS011;11897;45.438;12.128;2022-12-07T13:42:24;2.10;;;1.60;;
23449;SDS011;11897;45.438;12.128;2022-12-07T13:44:51;5.00;;;1.67;;
23449;SDS011;11897;45.438;12.128;2022-12-07T13:47:19;1.63;;;1.23;;
23449;SDS011;11897;45.438;12.128;2022-12-07T13:49:49;2.00;;;1.30;;
23449;SDS011;11897;45.438;12.128;2022-12-07T13:52:17;1.23;;;1.13;;
23449;SDS011;11897;45.438;12.128;2022-12-07T13:54:45;2.67;;;1.30;;
23449;SDS011;11897;45.438;12.128;2022-12-07T13:57:14;1.90;;;1.60;;
23449;SDS011;11897;45.438;12.128;2022-12-07T13:59:40;2.40;;;1.80;;
23449;SDS011;11897;45.438;12.128;2022-12-07T14:02:16;2.43;;;1.30;;
23449;SDS011;11897;45.438;12.128;2022-12-07T14:04:46;2.03;;;1.50;;
23449;SDS011;11897;45.438;12.128;2022-12-07T14:07:20;2.60;;;1.40;;
23449;SDS011;11897;45.438;12.128;2022-12-07T14:09:53;2.30;;;1.30;;
23449;SDS011;11897;45.438;12.128;2022-12-07T14:12:21;2.77;;;1.73;;
23449;SDS011;11897;45.438;12.128;2022-12-07T14:14:48;1.70;;;1.33;;
23449;SDS011;11897;45.438;12.128;2022-12-07T14:17:17;2.40;;;2.03;;
23449;SDS011;11897;45.438;12.128;2022-12-07T14:19:49;2.83;;;1.70;;
23449;SDS011;11897;45.438;12.128;2022-12-07T14:22:24;1.63;;;1.03;;
23449;SDS011;11897;45.438;12.128;2022-12-07T14:24:51;3.00;;;1.57;;
23449;SDS011;11897;45.438;12.128;2022-12-07T14:27:18;2.10;;;1.47;;
23449;SDS011;11897;45.438;12.128;2022-12-07T14:29:47;2.17;;;1.10;;
23449;SDS011;11897;45.438;12.128;2022-12-07T14:32:18;1.77;;;1.40;;
23449;SDS011;11897;45.438;12.128;2022-12-07T14:34:53;3.67;;;1.90;;
23449;SDS011;11897;45.438;12.128;2022-12-07T14:37:19;3.73;;;1.40;;
23449;SDS011;11897;45.438;12.128;2022-12-07T14:39:46;2.13;;;1.27;;
23449;SDS011;11897;45.438;12.128;2022-12-07T14:42:13;1.97;;;1.10;;
23449;SDS011;11897;45.438;12.128;2022-12-07T14:44:40;3.37;;;1.40;;
23449;SDS011;11897;45.438;12.128;2022-12-07T14:47:09;2.67;;;1.27;;
23449;SDS011;11897;45.438;12.128;2022-12-07T14:49:41;2.40;;;1.50;;
23449;SDS011;11897;45.438;12.128;2022-12-07T14:52:09;2.97;;;1.50;;
23449;SDS011;11897;45.438;12.128;2022-12-07T14:54:38;2.07;;;1.43;;
23449;SDS011;11897;45.438;12.128;2022-12-07T14:57:07;2.97;;;1.53;;
23449;SDS011;11897;45.438;12.128;2022-12-07T14:59:34;2.00;;;1.20;;
23449;SDS011;11897;45.438;12.128;2022-12-07T15:02:00;2.17;;;1.53;;
23449;SDS011;11897;45.438;12.128;2022-12-07T15:04:29;3.13;;;1.80;;
23449;SDS011;11897;45.438;12.128;2022-12-07T15:06:56;2.37;;;1.37;;
23449;SDS011;11897;45.438;12.128;2022-12-07T15:09:24;4.83;;;1.93;;